createdAt,value
2024-01-22T00:00:19.293Z,991.2
2024-01-22T00:02:20.628Z,991
2024-01-22T00:06:23.869Z,990.9
2024-01-22T00:08:25.507Z,990.8
2024-01-22T00:10:27.379Z,990.8
2024-01-22T00:12:28.408Z,990.7
2024-01-22T00:16:31.809Z,990.7
2024-01-22T00:18:33.129Z,990.6
2024-01-22T00:22:35.833Z,990.5
2024-01-22T00:26:39.154Z,990.4
2024-01-22T00:28:40.814Z,990.5
2024-01-22T00:32:43.706Z,990.6
2024-01-22T00:36:47.176Z,990.6
2024-01-22T00:38:48.841Z,990.6
2024-01-22T00:42:51.810Z,990.2
2024-01-22T00:44:53.773Z,990.3
2024-01-22T00:48:56.773Z,990.1
2024-01-22T00:50:58.716Z,990.2
2024-01-22T00:53:00.441Z,990.1
2024-01-22T00:55:01.995Z,990
2024-01-22T00:59:04.798Z,989.9
2024-01-22T01:01:06.318Z,989.8
2024-01-22T01:05:09.936Z,989.8
2024-01-22T01:09:12.719Z,989.8
2024-01-22T01:11:14.562Z,989.9
2024-01-22T01:15:17.723Z,989.9
2024-01-22T01:19:20.617Z,989.7
2024-01-22T01:21:21.636Z,989.7
2024-01-22T01:25:25.499Z,989.9
2024-01-22T01:27:27.019Z,989.6
2024-01-22T01:31:30.390Z,989.7
2024-01-22T01:33:32.483Z,989.6
2024-01-22T01:35:33.935Z,989.7
2024-01-22T01:37:35.876Z,989.7
2024-01-22T01:41:38.958Z,989.7
2024-01-22T01:43:40.379Z,989.7
2024-01-22T01:47:43.969Z,989.5
2024-01-22T01:51:47.366Z,989.7
2024-01-22T01:53:49.358Z,989.7
2024-01-22T01:57:53.967Z,989.7
2024-01-22T02:01:55.221Z,989.7
2024-01-22T02:03:56.923Z,989.6
2024-01-22T02:07:59.033Z,989.6
2024-01-22T02:10:00.356Z,989.6
2024-01-22T02:14:02.743Z,989.6
2024-01-22T02:18:05.088Z,989.5
2024-01-22T02:20:06.197Z,989.5
2024-01-22T02:24:09.023Z,989.4
2024-01-22T02:26:10.113Z,989.5
2024-01-22T02:30:13.063Z,989.5
2024-01-22T02:34:16.266Z,989.4
2024-01-22T02:36:17.540Z,989.5
2024-01-22T02:40:20.138Z,989.5
2024-01-22T02:44:23.817Z,989.6
2024-01-22T02:46:25.049Z,989.5
2024-01-22T02:50:27.671Z,989.4
2024-01-22T02:52:29.315Z,989.5
2024-01-22T02:56:32.877Z,989.3
2024-01-22T03:00:35.612Z,989.2
2024-01-22T03:02:36.879Z,989.3
2024-01-22T03:06:39.647Z,989.2
2024-01-22T03:08:41.143Z,989.3
2024-01-22T03:12:43.964Z,989.3
2024-01-22T03:16:47.655Z,989.3
2024-01-22T03:18:49.722Z,989.2
2024-01-22T03:22:52.304Z,989.1
2024-01-22T03:26:54.786Z,989
2024-01-22T03:28:56.713Z,989
2024-01-22T03:33:09.005Z,989
2024-01-22T03:35:01.443Z,988.8
2024-01-22T03:37:02.533Z,988.9
2024-01-22T03:39:03.907Z,988.8
2024-01-22T03:43:06.879Z,988.5
2024-01-22T03:45:08.504Z,988.4
2024-01-22T03:49:11.028Z,988.4
2024-01-22T03:51:12.754Z,988.5
2024-01-22T03:55:15.638Z,988.3
2024-01-22T03:59:19.186Z,988.2
2024-01-22T04:01:20.700Z,988.2
2024-01-22T04:05:23.468Z,988.2
2024-01-22T04:09:27.066Z,988.2
2024-01-22T04:11:28.754Z,988
2024-01-22T04:15:31.829Z,988
2024-01-22T04:17:33.772Z,988
2024-01-22T04:19:35.577Z,988.1
2024-01-22T04:21:37.390Z,987.9
2024-01-22T04:25:40.933Z,987.9
2024-01-22T04:27:42.132Z,987.8
2024-01-22T04:29:43.392Z,987.8
2024-01-22T04:31:45.076Z,987.7
2024-01-22T04:33:46.575Z,987.7
2024-01-22T04:37:49.085Z,987.7
2024-01-22T04:41:52.207Z,987.6
2024-01-22T04:43:53.270Z,987.5
2024-01-22T04:47:56.012Z,987.6
2024-01-22T04:49:57.803Z,987.6
2024-01-22T04:54:00.669Z,987.4
2024-01-22T04:58:03.353Z,987.3
2024-01-22T05:00:04.403Z,987.3
2024-01-22T05:04:08.359Z,987.5
2024-01-22T05:08:10.828Z,987.5
2024-01-22T05:10:12.278Z,987.5
2024-01-22T05:14:14.612Z,987.2
2024-01-22T05:16:16.348Z,987.2
2024-01-22T05:20:18.882Z,987.2
2024-01-22T05:24:30.622Z,987.1
2024-01-22T05:26:23.277Z,987.1
2024-01-22T05:30:26.589Z,987.1
2024-01-22T05:32:28.327Z,987
2024-01-22T05:36:31.774Z,986.9
2024-01-22T05:40:35.271Z,986.8
2024-01-22T05:42:36.634Z,986.6
2024-01-22T05:46:40.149Z,986.7
2024-01-22T05:51:27.430Z,986.6
2024-01-22T05:53:29.197Z,986.6
2024-01-22T05:57:32.144Z,986.6
2024-01-22T06:01:35.217Z,986.6
2024-01-22T06:03:36.996Z,986.6
2024-01-22T06:07:39.121Z,986.5
2024-01-22T06:09:40.241Z,986.5
2024-01-22T06:13:49.263Z,986.3
2024-01-22T06:17:46.421Z,986.1
2024-01-22T06:19:48.319Z,986
2024-01-22T06:23:51.409Z,986
2024-01-22T06:27:54.782Z,985.9
2024-01-22T06:29:55.965Z,986
2024-01-22T06:33:58.622Z,986
2024-01-22T06:35:59.617Z,985.9
2024-01-22T06:40:02.688Z,985.9
2024-01-22T06:44:05.730Z,985.8
2024-01-22T06:46:07.281Z,985.9
2024-01-22T06:50:09.895Z,985.7
2024-01-22T06:52:11.267Z,985.8
2024-01-22T06:56:14.407Z,985.9
2024-01-22T07:00:17.759Z,985.9
2024-01-22T07:02:19.562Z,985.8
2024-01-22T07:06:23.776Z,985.8
2024-01-22T07:10:25.052Z,986
2024-01-22T07:12:28.354Z,985.9
2024-01-22T07:16:30.548Z,985.9
2024-01-22T07:18:32.334Z,985.9
2024-01-22T07:20:33.617Z,985.8
2024-01-22T07:22:35.062Z,985.9
2024-01-22T07:26:38.000Z,985.7
2024-01-22T07:28:39.043Z,985.7
2024-01-22T07:30:40.030Z,985.8
2024-01-22T07:32:41.527Z,985.7
2024-01-22T07:34:42.954Z,985.8
2024-01-22T07:38:45.930Z,985.7
2024-01-22T07:42:49.292Z,985.6
2024-01-22T07:44:51.098Z,985.6
2024-01-22T07:48:54.363Z,985.7
2024-01-22T07:54:57.803Z,985.5
2024-01-22T07:59:00.998Z,985.5
2024-01-22T08:01:02.924Z,985.5
2024-01-22T08:05:05.123Z,985.4
2024-01-22T08:09:08.874Z,985.5
2024-01-22T08:11:10.119Z,985.4
2024-01-22T08:15:12.480Z,985.2
2024-01-22T08:17:14.055Z,985.1
2024-01-22T08:21:17.292Z,984.9
2024-01-22T08:25:21.023Z,985
2024-01-22T08:27:21.822Z,985
2024-01-22T08:31:24.934Z,984.9
2024-01-22T08:33:26.168Z,984.8
2024-01-22T08:37:28.743Z,984.9
2024-01-22T08:41:31.907Z,985
2024-01-22T08:43:33.691Z,985
2024-01-22T08:47:36.074Z,985.1
2024-01-22T08:51:38.963Z,985
2024-01-22T08:53:40.714Z,985.1
2024-01-22T08:57:44.294Z,985
2024-01-22T08:59:46.105Z,985.1
2024-01-22T09:03:49.455Z,985.1
2024-01-22T09:07:52.158Z,985.1
2024-01-22T09:09:53.414Z,985
2024-01-22T09:13:55.617Z,985.1
2024-01-22T09:15:57.319Z,985.1
2024-01-22T09:20:00.162Z,985.2
2024-01-22T09:24:02.868Z,985.2
2024-01-22T09:26:04.208Z,985.3
2024-01-22T09:30:07.533Z,985.2
2024-01-22T09:34:10.648Z,985.2
2024-01-22T09:36:12.094Z,985.2
2024-01-22T09:40:19.316Z,985.3
2024-01-22T09:42:17.768Z,985.4
2024-01-22T09:46:18.769Z,985.2
2024-01-22T09:50:22.116Z,985.3
2024-01-22T09:52:23.799Z,985.3
2024-01-22T09:56:25.997Z,985.4
2024-01-22T09:58:27.871Z,985.3
2024-01-22T10:02:30.173Z,985.2
2024-01-22T10:06:32.312Z,985.2
2024-01-22T10:08:33.401Z,985.2
2024-01-22T10:12:36.881Z,985.1
2024-01-22T10:16:40.123Z,985
2024-01-22T10:18:41.354Z,985.1
2024-01-22T10:22:43.968Z,984.9
2024-01-22T10:24:45.568Z,984.9
2024-01-22T10:28:48.580Z,985
2024-01-22T10:32:51.866Z,984.8
2024-01-22T10:34:53.436Z,984.8
2024-01-22T10:38:55.778Z,984.7
2024-01-22T10:40:57.231Z,984.6
2024-01-22T10:44:59.677Z,984.5
2024-01-22T10:49:02.851Z,984.4
2024-01-22T10:51:04.182Z,984.4
2024-01-22T10:55:07.225Z,984.3
2024-01-22T11:01:20.436Z,984.1
2024-01-22T11:05:14.572Z,984.2
2024-01-22T11:07:15.490Z,984.2
2024-01-22T11:11:17.869Z,984.2
2024-01-22T11:15:20.234Z,984.1
2024-01-22T11:17:21.881Z,984
2024-01-22T11:21:25.011Z,984.1
2024-01-22T11:23:26.861Z,984.1
2024-01-22T11:27:29.278Z,983.9
2024-01-22T11:31:31.914Z,983.9
2024-01-22T11:33:33.134Z,983.8
2024-01-22T11:37:35.427Z,983.8
2024-01-22T11:39:37.038Z,983.8
2024-01-22T11:43:39.482Z,983.8
2024-01-22T11:47:42.135Z,983.8
2024-01-22T11:49:43.521Z,983.7
2024-01-22T11:53:46.720Z,983.6
2024-01-22T11:57:49.628Z,983.5
2024-01-22T11:59:51.574Z,983.5
2024-01-22T12:03:55.517Z,983.4
2024-01-22T12:05:56.663Z,983.3
2024-01-22T12:09:59.645Z,983.3
2024-01-22T12:16:04.886Z,983.3
2024-01-22T12:20:07.015Z,983.3
2024-01-22T12:22:08.197Z,983.4
2024-01-22T12:26:10.119Z,983.2
2024-01-22T12:30:12.451Z,983.1
2024-01-22T12:32:13.816Z,983.1
2024-01-22T12:36:59.909Z,983.1
2024-01-22T12:41:02.311Z,983.1
2024-01-22T12:43:03.293Z,982.9
2024-01-22T12:47:05.441Z,982.8
2024-01-22T12:49:06.994Z,982.8
2024-01-22T12:53:09.028Z,982.8
2024-01-22T12:57:11.718Z,982.9
2024-01-22T12:59:12.970Z,982.9
2024-01-22T13:03:15.641Z,982.9
2024-01-22T13:07:19.176Z,983
2024-01-22T13:09:20.469Z,983.1
2024-01-22T13:13:23.220Z,983
2024-01-22T13:15:24.679Z,982.9
2024-01-22T13:17:25.765Z,982.9
2024-01-22T13:19:26.902Z,982.8
2024-01-22T13:23:29.168Z,982.9
2024-01-22T13:25:30.134Z,982.8
2024-01-22T13:27:32.999Z,982.8
2024-01-22T13:29:32.637Z,982.6
2024-01-22T13:31:34.473Z,982.7
2024-01-22T13:35:37.142Z,982.5
2024-01-22T13:37:38.632Z,982.5
2024-01-22T13:39:42.907Z,982.5
2024-01-22T13:41:41.967Z,982.4
2024-01-22T13:45:44.424Z,982.4
2024-01-22T13:51:48.948Z,982.3
2024-01-22T13:55:51.393Z,982.3
2024-01-22T13:57:53.180Z,982.3
2024-01-22T14:01:57.271Z,982.3
2024-01-22T14:05:59.316Z,982.3
2024-01-22T14:08:01.463Z,982.2
2024-01-22T14:12:03.991Z,982
2024-01-22T14:14:05.707Z,982.1
2024-01-22T14:18:07.720Z,982
2024-01-22T14:22:11.352Z,982.1
2024-01-22T14:24:12.798Z,982.2
2024-01-22T14:28:15.184Z,982.3
2024-01-22T14:30:16.392Z,982.1
2024-01-22T14:34:19.308Z,982.2
2024-01-22T14:38:25.617Z,982.1
2024-01-22T14:40:23.366Z,982.2
2024-01-22T14:44:26.169Z,982.2
2024-01-22T14:48:28.957Z,982.3
2024-01-22T14:50:29.990Z,982.3
2024-01-22T14:54:33.432Z,982.4
2024-01-22T14:56:35.119Z,982.3
2024-01-22T15:00:37.168Z,982.3
2024-01-22T15:04:40.237Z,982.3
2024-01-22T15:06:41.670Z,982.3
2024-01-22T15:10:44.596Z,982.3
2024-01-22T15:12:45.514Z,982.2
2024-01-22T15:16:47.576Z,982.2
2024-01-22T15:20:50.990Z,982.1
2024-01-22T15:22:52.804Z,982.2
2024-01-22T15:27:03.834Z,982
2024-01-22T15:30:58.264Z,982.1
2024-01-22T15:33:00.028Z,982.2
2024-01-22T15:37:03.221Z,982.4
2024-01-22T15:39:05.236Z,982.3
2024-01-22T15:43:08.673Z,982.5
2024-01-22T15:47:11.802Z,982.6
2024-01-22T15:49:13.345Z,982.6
2024-01-22T15:53:16.405Z,982.6
2024-01-22T15:55:18.176Z,982.6
2024-01-22T15:59:21.489Z,982.6
2024-01-22T16:03:23.969Z,982.7
2024-01-22T16:05:25.316Z,982.7
2024-01-22T16:09:28.213Z,982.9
2024-01-22T16:13:31.065Z,983.2
2024-01-22T16:15:32.105Z,983.1
2024-01-22T16:19:34.720Z,983.2
2024-01-22T16:21:36.048Z,983.2
2024-01-22T16:23:37.742Z,983.2
2024-01-22T16:25:39.493Z,983.3
2024-01-22T16:29:41.965Z,983.4
2024-01-22T16:31:42.988Z,983.5
2024-01-22T16:33:44.665Z,983.6
2024-01-22T16:35:45.984Z,983.8
2024-01-22T16:37:47.320Z,983.8
2024-01-22T16:41:50.902Z,984
2024-01-22T16:45:53.323Z,984.2
2024-01-22T16:47:55.169Z,984.3
2024-01-22T16:51:58.246Z,984.4
2024-01-22T16:58:02.700Z,984.2
2024-01-22T17:02:06.067Z,984.2
2024-01-22T17:04:07.531Z,984
2024-01-22T17:06:09.011Z,983.9
2024-01-22T17:08:10.057Z,984
2024-01-22T17:12:13.475Z,984.3
2024-01-22T17:14:14.931Z,984.4
2024-01-22T17:16:16.674Z,984.4
2024-01-22T17:18:18.445Z,984.4
2024-01-22T17:20:21.859Z,984.3
2024-01-22T17:24:22.518Z,984.2
2024-01-22T17:26:24.330Z,984.5
2024-01-22T17:28:25.596Z,984.7
2024-01-22T17:30:26.682Z,984.8
2024-01-22T17:34:29.611Z,984.9
2024-01-22T17:36:30.993Z,985
2024-01-22T17:40:33.957Z,984.9
2024-01-22T17:44:36.828Z,985
2024-01-22T17:46:38.454Z,985
2024-01-22T17:50:40.576Z,984.9
2024-01-22T17:54:43.583Z,985.2
2024-01-22T17:56:45.295Z,985.2
2024-01-22T18:00:49.049Z,985.1
2024-01-22T18:02:50.693Z,985.2
2024-01-22T18:06:53.279Z,985.1
2024-01-22T18:10:56.319Z,985
2024-01-22T18:12:58.125Z,985.2
2024-01-22T18:17:01.361Z,985.5
2024-01-22T18:19:03.344Z,985.6
2024-01-22T18:23:06.498Z,985.9
2024-01-22T18:27:09.460Z,986
2024-01-22T18:29:10.862Z,986.2
2024-01-22T18:33:22.483Z,986.4
2024-01-22T18:37:15.655Z,986.6
2024-01-22T18:39:16.817Z,986.7
2024-01-22T18:43:19.903Z,986.8
2024-01-22T18:45:21.488Z,986.8
2024-01-22T18:49:24.109Z,986.9
2024-01-22T18:53:27.474Z,986.9
2024-01-22T18:55:29.236Z,986.9
2024-01-22T18:59:32.253Z,987
2024-01-22T19:01:33.840Z,987
2024-01-22T19:05:37.232Z,987.1
2024-01-22T19:09:39.726Z,987.3
2024-01-22T19:11:41.202Z,987.2
2024-01-22T19:15:45.022Z,987.4
2024-01-22T19:19:48.343Z,987.3
2024-01-22T19:22:33.920Z,987.5
2024-01-22T19:26:37.356Z,987.5
2024-01-22T19:30:40.063Z,987.5
2024-01-22T19:32:41.011Z,987.5
2024-01-22T19:36:52.636Z,987.3
2024-01-22T19:38:45.026Z,987.6
2024-01-22T19:42:47.817Z,987.5
2024-01-22T19:46:50.300Z,987.6
2024-01-22T19:48:51.928Z,987.6
2024-01-22T19:52:54.816Z,987.5
2024-01-22T19:58:59.227Z,987.6
2024-01-22T20:03:01.699Z,987.7
2024-01-22T20:05:03.058Z,987.6
2024-01-22T20:09:05.969Z,987.5
2024-01-22T20:13:08.907Z,987.7
2024-01-22T20:15:10.554Z,987.7
2024-01-22T20:19:13.663Z,987.8
2024-01-22T20:21:14.802Z,987.9
2024-01-22T20:25:17.366Z,987.9
2024-01-22T20:29:20.809Z,987.9
2024-01-22T20:31:21.445Z,987.9
2024-01-22T20:35:24.480Z,987.9
2024-01-22T20:37:26.012Z,987.9
2024-01-22T20:41:29.043Z,988.1
2024-01-22T20:45:31.780Z,988.1
2024-01-22T20:47:33.494Z,988.1
2024-01-22T20:51:36.857Z,988.1
2024-01-22T20:55:40.037Z,988.2
2024-01-22T20:57:41.920Z,988.1
2024-01-22T21:01:44.324Z,988.1
2024-01-22T21:03:46.038Z,988.1
2024-01-22T21:07:48.934Z,988.2
2024-01-22T21:11:52.401Z,988.3
2024-01-22T21:13:53.752Z,988.3
2024-01-22T21:17:55.934Z,988.1
2024-01-22T21:19:57.853Z,988.1
2024-01-22T21:24:00.866Z,988
2024-01-22T21:28:04.064Z,988.1
2024-01-22T21:30:05.788Z,988.2
2024-01-22T21:34:09.076Z,988.2
2024-01-22T21:38:11.574Z,988.3
2024-01-22T21:40:13.104Z,988.3
2024-01-22T21:44:16.147Z,988.3
2024-01-22T21:46:17.158Z,988.1
2024-01-22T21:50:20.454Z,988.2
2024-01-22T21:54:23.088Z,988.2
2024-01-22T21:56:25.005Z,988.3
2024-01-22T22:00:27.883Z,988.4
2024-01-22T22:02:29.654Z,988.3
2024-01-22T22:06:31.807Z,988.3
2024-01-22T22:10:34.860Z,988.3
2024-01-22T22:12:36.107Z,988.4
2024-01-22T22:16:38.238Z,988.2
2024-01-22T22:20:40.852Z,988.1
2024-01-22T22:22:42.739Z,988.3
2024-01-22T22:26:45.322Z,988.3
2024-01-22T22:28:47.132Z,988.3
2024-01-22T22:30:49.919Z,988.3
2024-01-22T22:32:50.288Z,988.3
2024-01-22T22:36:52.419Z,988.2
2024-01-22T22:38:53.581Z,988.3
2024-01-22T22:40:55.361Z,988.3
2024-01-22T22:42:56.834Z,988.2
2024-01-22T22:44:58.034Z,988.2
2024-01-22T22:49:00.743Z,988.2
2024-01-22T22:51:02.648Z,988.3
2024-01-22T22:53:04.494Z,988.2
2024-01-22T22:55:05.897Z,988.2
2024-01-22T22:59:09.455Z,988.3
2024-01-22T23:05:13.805Z,988.3
2024-01-22T23:09:16.113Z,988.3
2024-01-22T23:11:17.460Z,988.3
2024-01-22T23:15:19.900Z,988.3
2024-01-22T23:19:22.072Z,988.1
2024-01-22T23:21:22.940Z,988.3
2024-01-22T23:25:25.568Z,988.4
2024-01-22T23:27:27.419Z,988.4
2024-01-22T23:31:30.316Z,988.2
2024-01-22T23:35:32.289Z,988.5
2024-01-22T23:37:33.585Z,988.3
2024-01-22T23:41:36.214Z,988.3
2024-01-22T23:43:37.375Z,988.3
2024-01-22T23:47:40.973Z,988.5
2024-01-22T23:51:44.188Z,988.4
2024-01-22T23:53:45.930Z,988.6
2024-01-22T23:57:49.036Z,988.6
